Crandall, Texas
Current Conditions -  °F | °C
As of 7:50 PM on Saturday 25 Oct 2014 (Local Time) from KHQZ Reporting Station
Clear Clear  
Wind Chill: 24°   Ceiling: Unl
Heat Index: 24°   Visibility: 10mi
Dew Point: 16°   Wind: 5mph
Humidity: 61%   Direction: 140°SE
Pressure: 30.06"   Gusts: NA
Location:  32.63°N, 96.46°W
Report Text: KHQZ 260050Z 14004KT 10SM CLR 24/16 A3006
Loading
Personal Weather Stations






























Interactive Weather Map
Tropical Storm Tracking
New forecast layout! Learn more

10-Day Weather Forecast

Advertisements
Track Severe Weather on mobile